Time;durP1;ratioP1;P1;durP2;ratioP2;P2;SDS_P1;SDS_P2;PMS_P1;PMS_P2;Temp;Humidity;BMP_temperature;BMP_pressure;BME280_temperature;BME280_humidity;BME280_pressure;Samples;Min_cycle;Max_cycle;Signal;HPM_P1;HPM_P2
2022/09/19 00:03:29;;;;;;;1.90;0.70;;;9.10;99.90;;;;;;20934350;28;20040;-79
2022/09/19 00:13:31;;;;;;;2.08;0.80;;;9.10;99.90;;;;;;20932233;28;20040;-79
2022/09/19 00:33:52;;;;;;;2.47;0.60;;;9.30;99.90;;;;;;20951736;28;20802;-79
2022/09/19 00:43:56;;;;;;;0.90;0.30;;;9.40;99.90;;;;;;20937304;28;20093;-80
2022/09/19 00:54:11;;;;;;;2.05;0.50;;;9.60;99.90;;;;;;20956493;28;20036;-79
2022/09/19 01:04:29;;;;;;;3.03;1.92;;;9.50;99.90;;;;;;20957675;28;20044;-80
2022/09/19 01:14:47;;;;;;;2.07;0.90;;;9.40;99.90;;;;;;20938922;28;20081;-79
2022/09/19 01:25:05;;;;;;;3.47;0.63;;;9.20;99.90;;;;;;20923630;28;20555;-79
2022/09/19 01:35:10;;;;;;;1.73;0.88;;;9.10;99.90;;;;;;20919170;28;20049;-79
2022/09/19 01:45:11;;;;;;;1.70;0.55;;;9.00;99.90;;;;;;20942030;28;20048;-79
2022/09/19 01:55:42;;;;;;;1.88;0.25;;;9.00;99.90;;;;;;20930048;28;20047;-79
2022/09/19 02:06:06;;;;;;;0.77;0.38;;;8.90;99.90;;;;;;20899955;28;22064;-79
2022/09/19 02:16:15;;;;;;;1.33;0.40;;;8.70;99.90;;;;;;20926917;28;20036;-78
2022/09/19 02:26:20;;;;;;;2.60;0.45;;;8.60;99.90;;;;;;20919557;28;20044;-79
2022/09/19 02:36:35;;;;;;;3.40;0.68;;;8.70;99.90;;;;;;20929718;28;20918;-79
2022/09/19 02:46:47;;;;;;;2.28;0.93;;;8.80;99.90;;;;;;20932927;28;20441;-79
2022/09/19 02:56:50;;;;;;;3.78;1.65;;;9.00;99.90;;;;;;20929449;28;21580;-78
2022/09/19 03:07:15;;;;;;;4.50;0.60;;;9.30;99.90;;;;;;20929577;28;20040;-78
2022/09/19 03:17:20;;;;;;;1.67;0.60;;;9.70;99.90;;;;;;20958177;28;20032;-79
2022/09/19 03:27:21;;;;;;;5.55;1.20;;;10.10;99.90;;;;;;20940926;28;20990;-80
2022/09/19 03:37:23;;;;;;;3.67;1.52;;;10.20;99.90;;;;;;20936201;28;20503;-80
2022/09/19 03:47:24;;;;;;;1.70;0.93;;;10.30;99.90;;;;;;20944061;28;20055;-80
2022/09/19 03:57:25;;;;;;;7.50;1.52;;;10.30;99.90;;;;;;20950035;28;20040;-80
2022/09/19 04:07:27;;;;;;;2.60;1.05;;;10.20;99.90;;;;;;20946277;28;20596;-79
2022/09/19 04:17:28;;;;;;;0.43;0.15;;;10.20;99.90;;;;;;20934730;28;20979;-79
2022/09/19 04:27:29;;;;;;;0.95;0.20;;;10.00;99.90;;;;;;20928238;28;20045;-79
2022/09/19 04:37:30;;;;;;;3.10;0.95;;;9.90;99.90;;;;;;20918040;28;20044;-78
2022/09/19 04:47:32;;;;;;;3.13;1.17;;;10.40;99.90;;;;;;20931936;28;20526;-79
2022/09/19 04:57:35;;;;;;;2.25;0.73;;;10.80;99.90;;;;;;20927992;28;20060;-79
2022/09/19 05:07:36;;;;;;;4.45;1.27;;;10.90;99.90;;;;;;20926175;28;20070;-79
2022/09/19 05:17:37;;;;;;;1.55;0.28;;;11.00;99.90;;;;;;20931252;28;20032;-80
2022/09/19 05:27:39;;;;;;;5.85;1.52;;;11.00;99.90;;;;;;20924475;28;20484;-80
2022/09/19 05:37:41;;;;;;;1.73;0.40;;;10.90;99.90;;;;;;20941272;28;20048;-80
2022/09/19 05:47:42;;;;;;;1.20;0.22;;;11.00;99.90;;;;;;20961071;28;20032;-80
2022/09/19 05:57:52;;;;;;;2.08;0.85;;;11.20;99.90;;;;;;20961527;28;20037;-79
2022/09/19 06:07:56;;;;;;;3.15;1.35;;;11.40;99.90;;;;;;20966417;28;20210;-80
2022/09/19 06:17:59;;;;;;;11.30;1.98;;;11.50;99.90;;;;;;20962844;28;20040;-81
2022/09/19 06:28:04;;;;;;;3.05;1.30;;;11.40;99.90;;;;;;20959118;28;20033;-80
2022/09/19 06:38:07;;;;;;;2.05;0.50;;;11.50;99.90;;;;;;20962355;28;20054;-80
2022/09/19 06:48:09;;;;;;;1.90;0.50;;;11.50;99.90;;;;;;20957849;28;20082;-80
2022/09/19 06:58:11;;;;;;;3.55;0.98;;;11.50;99.90;;;;;;20940366;28;20989;-80
2022/09/19 07:08:13;;;;;;;2.70;0.60;;;11.60;99.90;;;;;;20940764;28;20033;-81
2022/09/19 07:18:14;;;;;;;2.65;0.50;;;11.60;99.90;;;;;;20939337;28;20484;-81
2022/09/19 07:28:17;;;;;;;1.35;0.50;;;11.60;99.90;;;;;;20947065;28;20397;-81
2022/09/19 07:38:20;;;;;;;2.03;0.68;;;11.80;99.90;;;;;;20940691;28;20918;-80
2022/09/19 07:48:21;;;;;;;10.10;0.73;;;12.00;99.90;;;;;;20963387;28;20510;-82
2022/09/19 07:58:25;;;;;;;1.10;0.30;;;12.30;99.90;;;;;;20945694;28;20110;-82
2022/09/19 08:08:26;;;;;;;7.53;1.33;;;12.50;99.90;;;;;;20950304;28;20040;-82
2022/09/19 08:18:27;;;;;;;1.40;0.43;;;12.70;99.90;;;;;;20959510;28;20036;-82
2022/09/19 08:28:30;;;;;;;0.82;0.30;;;13.30;99.90;;;;;;20945852;28;20036;-81
2022/09/19 08:38:31;;;;;;;0.68;0.20;;;14.00;99.90;;;;;;20930623;28;20074;-80
2022/09/19 08:49:03;;;;;;;1.63;0.40;;;14.30;99.90;;;;;;20961229;28;20049;-80
2022/09/19 08:59:11;;;;;;;2.45;0.30;;;14.40;99.90;;;;;;20951519;28;20545;-80
2022/09/19 09:09:30;;;;;;;;;;;14.60;99.90;;;;;;20961986;28;20105;-81
2022/09/19 09:19:53;;;;;;;2.53;0.60;;;13.90;99.90;;;;;;20985038;28;20056;-80
2022/09/19 09:30:01;;;;;;;2.17;0.98;;;13.10;99.90;;;;;;20951241;28;20719;-80
2022/09/19 09:41:44;;;;;;;1.23;0.30;;;12.70;99.90;;;;;;20968384;28;20048;-80
2022/09/19 09:51:04;;;;;;;3.33;1.27;;;12.80;99.90;;;;;;20967640;28;20746;-81
2022/09/19 10:11:56;;;;;;;8.48;1.20;;;13.40;99.90;;;;;;20986541;28;20765;-81
2022/09/19 10:21:57;;;;;;;3.42;0.40;;;13.80;99.90;;;;;;20966592;28;20529;-80
2022/09/19 10:32:07;;;;;;;11.85;0.55;;;13.80;99.90;;;;;;20983816;28;20396;-79
2022/09/19 10:42:34;;;;;;;2.00;0.38;;;13.60;99.90;;;;;;20891503;28;20639;-81
2022/09/19 10:52:36;;;;;;;1.73;0.70;;;13.60;99.90;;;;;;20868317;28;21684;-81
2022/09/19 11:02:37;;;;;;;1.17;0.30;;;13.40;99.90;;;;;;20884932;28;20504;-81
2022/09/19 11:12:41;;;;;;;4.32;0.95;;;13.30;99.90;;;;;;20874785;28;20099;-82
2022/09/19 11:23:13;;;;;;;1.30;0.20;;;14.10;99.90;;;;;;20870085;28;20037;-82
2022/09/19 11:33:31;;;;;;;1.60;0.82;;;14.60;99.90;;;;;;20879489;28;20942;-81
2022/09/19 11:44:11;;;;;;;0.97;0.20;;;14.70;99.90;;;;;;20937880;28;20647;-81
2022/09/19 11:54:48;;;;;;;2.03;0.32;;;14.40;99.90;;;;;;20885738;28;21541;-80
2022/09/19 12:05:17;;;;;;;7.82;0.30;;;14.40;99.90;;;;;;20901247;28;20121;-80
2022/09/19 12:15:22;;;;;;;2.15;0.77;;;15.80;99.90;;;;;;20950104;28;20059;-80
2022/09/19 12:25:29;;;;;;;0.65;0.25;;;14.70;99.90;;;;;;20932010;28;20927;-81
2022/09/19 12:35:44;;;;;;;1.52;0.25;;;14.50;99.90;;;;;;20957453;28;20036;-80
2022/09/19 12:46:10;;;;;;;0.13;0.10;;;16.20;99.90;;;;;;20931697;28;20446;-80
2022/09/19 12:56:20;;;;;;;0.63;0.10;;;17.10;99.90;;;;;;20939396;28;20052;-80
2022/09/19 13:06:25;;;;;;;1.30;0.30;;;17.00;99.90;;;;;;20933974;28;20293;-81
2022/09/19 13:23:29;;;;;;;0.77;0.13;;;15.60;99.90;;;;;;20923426;28;20037;-80
2022/09/19 13:26:57;;;;;;;0.43;0.10;;;15.00;99.90;;;;;;20940057;28;22608;-81
2022/09/19 13:37:21;;;;;;;2.05;0.20;;;14.80;99.90;;;;;;20933613;28;20403;-81
2022/09/19 13:47:27;;;;;;;1.60;0.30;;;16.10;99.90;;;;;;20953359;28;20634;-79
2022/09/19 13:57:31;;;;;;;1.63;0.60;;;16.90;99.90;;;;;;20965770;28;20384;-78
2022/09/19 14:07:54;;;;;;;1.02;0.40;;;17.60;99.90;;;;;;20965810;28;20037;-78
2022/09/19 14:18:10;;;;;;;1.00;0.22;;;17.60;99.90;;;;;;20937636;28;20297;-79
2022/09/19 14:28:30;;;;;;;0.70;0.30;;;17.00;99.90;;;;;;20949776;28;20048;-81
2022/09/19 14:39:03;;;;;;;1.45;0.80;;;15.60;99.90;;;;;;20970977;28;20328;-81
2022/09/19 14:49:12;;;;;;;0.93;0.40;;;14.70;99.90;;;;;;20928644;28;20598;-81
2022/09/19 14:59:22;;;;;;;2.60;1.13;;;15.00;99.90;;;;;;20934028;28;20067;-80
2022/09/19 15:09:33;;;;;;;1.38;0.50;;;15.10;99.90;;;;;;20955308;28;20407;-80
2022/09/19 15:19:36;;;;;;;1.92;0.50;;;15.10;99.90;;;;;;20958548;28;20044;-81
2022/09/19 15:29:37;;;;;;;5.60;0.63;;;15.50;99.90;;;;;;20961727;28;20040;-81
2022/09/19 15:39:38;;;;;;;0.75;0.45;;;15.50;99.90;;;;;;20967895;28;20101;-80
2022/09/19 15:49:42;;;;;;;0.75;0.32;;;15.00;99.90;;;;;;20945512;28;20044;-80
2022/09/19 15:59:47;;;;;;;1.95;0.50;;;15.00;99.90;;;;;;20945658;28;20044;-80
2022/09/19 16:10:10;;;;;;;3.13;1.25;;;14.90;99.90;;;;;;20962051;28;20036;-81
2022/09/19 16:20:29;;;;;;;0.63;0.25;;;14.60;99.90;;;;;;20902953;28;21084;-82
2022/09/19 16:30:30;;;;;;;2.92;0.60;;;14.40;99.90;;;;;;20940274;28;20048;-81
2022/09/19 16:40:31;;;;;;;0.80;0.30;;;14.40;99.90;;;;;;20910856;28;20056;-78
2022/09/19 16:50:39;;;;;;;0.85;0.40;;;14.20;99.90;;;;;;20903494;28;20036;-80
2022/09/19 17:00:40;;;;;;;;;;;14.20;99.90;;;;;;20919873;28;21891;-81
2022/09/19 17:10:41;;;;;;;2.65;0.40;;;14.00;99.90;;;;;;20918577;28;19923;-81
2022/09/19 17:20:43;;;;;;;1.73;0.65;;;14.00;99.90;;;;;;20921673;28;20040;-81
2022/09/19 17:30:45;;;;;;;0.93;0.50;;;14.00;99.90;;;;;;20931027;28;20110;-82
2022/09/19 17:40:47;;;;;;;1.00;0.38;;;13.90;99.90;;;;;;20926013;28;20048;-81
2022/09/19 17:50:48;;;;;;;1.83;0.85;;;13.80;99.90;;;;;;20934230;28;20033;-82
2022/09/19 18:00:49;;;;;;;1.25;0.70;;;13.70;99.90;;;;;;20919660;28;20033;-81
2022/09/19 18:11:10;;;;;;;2.97;0.80;;;13.50;99.90;;;;;;20978946;28;20461;-81
2022/09/19 18:21:13;;;;;;;1.98;0.65;;;13.50;99.90;;;;;;20922955;28;20681;-81
2022/09/19 18:31:14;;;;;;;2.67;1.17;;;13.50;99.90;;;;;;20942794;28;20753;-81
2022/09/19 18:41:16;;;;;;;1.10;0.40;;;13.30;99.90;;;;;;20889449;28;20049;-81
2022/09/19 18:51:23;;;;;;;2.33;1.30;;;13.20;99.90;;;;;;20960921;28;20114;-82
2022/09/19 19:01:29;;;;;;;1.57;0.20;;;13.00;99.90;;;;;;20884032;28;20699;-82
2022/09/19 19:11:35;;;;;;;0.35;0.10;;;13.00;99.90;;;;;;20947896;28;20381;-81
2022/09/19 19:21:40;;;;;;;1.95;0.77;;;12.90;99.90;;;;;;20939121;28;20044;-81
2022/09/19 19:31:41;;;;;;;2.88;0.60;;;12.90;99.90;;;;;;20924919;28;21609;-80
2022/09/19 19:41:44;;;;;;;2.03;0.40;;;12.90;99.90;;;;;;20922469;28;20095;-80
2022/09/19 19:51:46;;;;;;;2.17;0.38;;;12.90;99.90;;;;;;20915013;28;20097;-81
2022/09/19 20:01:47;;;;;;;1.17;0.40;;;12.90;99.90;;;;;;20928815;28;20044;-82
2022/09/19 20:11:49;;;;;;;3.00;0.30;;;13.00;99.90;;;;;;20964217;28;20039;-80
2022/09/19 20:21:51;;;;;;;1.75;0.80;;;12.90;99.90;;;;;;20945657;28;20040;-81
2022/09/19 20:31:54;;;;;;;1.42;0.40;;;12.90;99.90;;;;;;20941592;28;20102;-81
2022/09/19 20:41:55;;;;;;;2.20;0.40;;;13.00;99.90;;;;;;20950576;28;20659;-81
2022/09/19 20:51:56;;;;;;;1.17;0.63;;;12.90;99.90;;;;;;20932338;28;20466;-81
2022/09/19 21:01:58;;;;;;;2.28;0.55;;;12.80;99.90;;;;;;20920192;28;20037;-81
2022/09/19 21:12:00;;;;;;;4.85;0.93;;;12.90;99.90;;;;;;20987746;28;20093;-83
2022/09/19 21:22:02;;;;;;;1.27;0.40;;;12.80;99.90;;;;;;20921100;28;20098;-82
2022/09/19 21:32:04;;;;;;;2.25;0.30;;;12.70;99.90;;;;;;20946878;28;20035;-82
2022/09/19 21:42:05;;;;;;;1.83;0.75;;;12.60;99.90;;;;;;20938466;28;20792;-80
2022/09/19 21:52:06;;;;;;;1.08;0.28;;;12.60;99.90;;;;;;20885228;28;20905;-83
2022/09/19 22:02:07;;;;;;;2.97;0.95;;;12.60;99.90;;;;;;20960787;28;20454;-82
2022/09/19 22:12:09;;;;;;;2.47;1.13;;;12.60;99.90;;;;;;20956336;28;20029;-82
2022/09/19 22:22:10;;;;;;;1.27;0.47;;;12.60;99.90;;;;;;20961858;28;20066;-82
2022/09/19 22:32:11;;;;;;;1.45;0.20;;;12.60;99.90;;;;;;20966462;28;20032;-82
2022/09/19 22:42:15;;;;;;;0.80;0.32;;;12.50;99.90;;;;;;20951587;28;20048;-83
2022/09/19 22:52:18;;;;;;;0.63;0.30;;;12.50;99.90;;;;;;20946661;28;20122;-81
2022/09/19 23:02:21;;;;;;;0.85;0.25;;;12.40;99.90;;;;;;20955338;28;20058;-82
2022/09/19 23:12:22;;;;;;;0.77;0.30;;;12.30;99.90;;;;;;20950273;28;20281;-82
2022/09/19 23:22:23;;;;;;;0.80;0.20;;;12.30;99.90;;;;;;20959076;28;20125;-82
2022/09/19 23:32:25;;;;;;;2.92;0.28;;;12.30;99.90;;;;;;21001938;28;20115;-81
2022/09/19 23:42:27;;;;;;;0.38;0.17;;;12.20;99.90;;;;;;20970885;28;20036;-82
2022/09/19 23:52:29;;;;;;;4.38;1.30;;;12.20;99.90;;;;;;20956986;28;20036;-82
